createdAt,value
2018-06-05T00:00:06.695Z,20.10
2018-06-05T00:03:24.959Z,20.00
2018-06-05T00:06:43.220Z,19.90
2018-06-05T00:10:01.487Z,19.90
2018-06-05T00:13:19.739Z,19.80
2018-06-05T00:16:37.984Z,19.70
2018-06-05T00:19:56.240Z,19.70
2018-06-05T00:23:14.493Z,19.50
2018-06-05T00:26:32.726Z,19.30
2018-06-05T00:29:50.997Z,19.30
2018-06-05T00:33:09.263Z,19.40
2018-06-05T00:36:27.500Z,19.30
2018-06-05T00:39:45.798Z,19.20
2018-06-05T00:43:04.047Z,19.20
2018-06-05T00:46:22.304Z,19.30
2018-06-05T00:49:40.563Z,19.30
2018-06-05T00:52:58.826Z,19.40
2018-06-05T00:56:17.092Z,19.50
2018-06-05T00:59:35.367Z,19.50
2018-06-05T01:06:11.621Z,19.80
2018-06-05T01:09:29.878Z,20.00
2018-06-05T01:12:48.125Z,20.20
2018-06-05T01:16:07.190Z,20.30
2018-06-05T01:19:25.485Z,20.30
2018-06-05T01:22:43.727Z,20.40
2018-06-05T01:26:01.979Z,20.40
2018-06-05T01:29:20.230Z,20.40
2018-06-05T01:32:38.480Z,20.40
2018-06-05T01:35:56.732Z,20.40
2018-06-05T01:39:14.987Z,20.40
2018-06-05T01:42:33.235Z,20.40
2018-06-05T01:45:51.503Z,20.40
2018-06-05T01:49:09.771Z,20.30
2018-06-05T01:52:28.027Z,20.30
2018-06-05T01:55:46.287Z,20.20
2018-06-05T01:59:04.587Z,20.10
2018-06-05T02:02:22.843Z,20.00
2018-06-05T02:05:41.099Z,19.90
2018-06-05T02:08:59.339Z,19.90
2018-06-05T02:12:17.583Z,19.80
2018-06-05T02:15:35.853Z,19.70
2018-06-05T02:18:54.116Z,19.50
2018-06-05T02:22:12.382Z,19.40
2018-06-05T02:25:30.656Z,19.50
2018-06-05T02:28:48.925Z,19.50
2018-06-05T02:32:07.175Z,19.50
2018-06-05T02:35:25.455Z,19.50
2018-06-05T02:38:43.748Z,19.50
2018-06-05T02:42:03.156Z,19.40
2018-06-05T02:45:21.443Z,19.20
2018-06-05T02:48:39.869Z,19.10
2018-06-05T02:51:58.137Z,18.70
2018-06-05T02:55:16.433Z,18.50
2018-06-05T02:58:34.761Z,18.40
2018-06-05T03:01:53.029Z,18.40
2018-06-05T03:05:11.300Z,18.10
2018-06-05T03:08:29.553Z,18.10
2018-06-05T03:11:48.306Z,17.80
2018-06-05T03:15:06.593Z,17.80
2018-06-05T03:18:24.862Z,17.70
2018-06-05T03:21:43.145Z,17.80
2018-06-05T03:25:01.387Z,17.80
2018-06-05T03:28:19.676Z,17.80
2018-06-05T03:31:37.968Z,18.00
2018-06-05T03:34:56.236Z,18.10
2018-06-05T03:38:14.513Z,18.10
2018-06-05T03:41:32.780Z,18.10
2018-06-05T03:44:51.032Z,18.00
2018-06-05T03:48:09.308Z,18.00
2018-06-05T03:51:27.580Z,18.00
2018-06-05T03:54:45.850Z,17.90
2018-06-05T03:58:10.600Z,17.90
2018-06-05T04:01:28.875Z,17.90
2018-06-05T04:04:47.139Z,18.00
2018-06-05T04:08:05.401Z,18.10
2018-06-05T04:11:23.664Z,18.10
2018-06-05T04:14:41.937Z,18.10
2018-06-05T04:21:18.374Z,18.20
2018-06-05T04:24:37.001Z,18.30
2018-06-05T04:27:55.299Z,18.30
2018-06-05T04:31:13.564Z,18.40
2018-06-05T04:34:31.839Z,18.50
2018-06-05T04:41:08.130Z,18.70
2018-06-05T04:44:30.112Z,18.80
2018-06-05T04:47:48.425Z,18.90
2018-06-05T04:51:06.672Z,19.00
2018-06-05T04:57:42.949Z,19.10
2018-06-05T05:01:01.206Z,19.20
2018-06-05T05:04:19.477Z,19.30
2018-06-05T05:07:37.754Z,19.40
2018-06-05T05:10:56.020Z,19.30
2018-06-05T05:14:14.312Z,19.10
2018-06-05T05:17:32.600Z,19.30
2018-06-05T05:20:50.865Z,19.40
2018-06-05T05:24:09.268Z,19.50
2018-06-05T05:27:27.543Z,19.70
2018-06-05T05:30:45.825Z,19.80
2018-06-05T05:34:04.100Z,19.70
2018-06-05T05:40:40.389Z,20.10
2018-06-05T05:48:19.852Z,20.90
2018-06-05T05:51:38.124Z,20.90
2018-06-05T05:54:56.395Z,21.10
2018-06-05T05:58:14.669Z,21.70
2018-06-05T06:01:32.936Z,22.40
2018-06-05T06:04:51.197Z,22.70
2018-06-05T06:11:27.485Z,23.40
2018-06-05T06:14:45.759Z,23.10
2018-06-05T06:18:04.041Z,23.30
2018-06-05T06:21:22.301Z,22.30
2018-06-05T06:24:40.578Z,22.70
2018-06-05T06:27:58.849Z,23.00
2018-06-05T06:31:17.132Z,22.20
2018-06-05T06:34:35.396Z,22.20
2018-06-05T06:37:53.661Z,22.30
2018-06-05T06:41:11.941Z,22.40
2018-06-05T06:44:30.216Z,23.60
2018-06-05T06:47:48.493Z,24.10
2018-06-05T06:51:06.776Z,24.10
2018-06-05T07:01:01.082Z,24.50
2018-06-05T07:04:19.349Z,24.50
2018-06-05T07:07:37.604Z,24.80
2018-06-05T07:10:55.865Z,25.60
2018-06-05T07:14:14.137Z,26.00
2018-06-05T07:17:32.381Z,25.60
2018-06-05T07:20:50.658Z,24.80
2018-06-05T07:24:08.929Z,24.90
2018-06-05T07:27:27.185Z,25.50
2018-06-05T07:30:45.457Z,25.50
2018-06-05T07:34:03.730Z,26.40
2018-06-05T07:37:22.018Z,25.70
2018-06-05T07:40:40.287Z,25.00
2018-06-05T07:47:16.580Z,25.20
2018-06-05T07:53:52.877Z,27.00
2018-06-05T07:57:11.147Z,27.40
2018-06-05T08:00:29.436Z,28.10
2018-06-05T08:03:47.733Z,27.70
2018-06-05T08:07:06.022Z,28.30
2018-06-05T08:10:24.300Z,28.70
2018-06-05T08:13:42.563Z,29.20
2018-06-05T08:17:00.849Z,29.00
2018-06-05T08:20:19.136Z,28.30
2018-06-05T08:23:37.431Z,27.80
2018-06-05T08:26:55.711Z,28.40
2018-06-05T08:30:13.992Z,29.00
2018-06-05T08:33:32.269Z,29.60
2018-06-05T08:36:50.566Z,29.30
2018-06-05T08:40:08.871Z,30.00
2018-06-05T08:43:27.135Z,30.30
2018-06-05T08:46:45.420Z,30.10
2018-06-05T08:50:03.752Z,30.30
2018-06-05T08:53:22.034Z,30.50
2018-06-05T08:56:40.315Z,30.40
2018-06-05T08:59:58.649Z,30.40
2018-06-05T09:03:16.912Z,30.70
2018-06-05T09:06:35.218Z,31.00
2018-06-05T09:10:00.128Z,30.90
2018-06-05T09:13:18.420Z,30.20
2018-06-05T09:16:36.706Z,30.00
2018-06-05T09:19:54.997Z,30.70
2018-06-05T09:23:13.264Z,31.30
2018-06-05T09:26:31.548Z,31.60
2018-06-05T09:29:49.809Z,31.60
2018-06-05T09:33:08.120Z,31.60
2018-06-05T09:36:26.407Z,30.80
2018-06-05T09:39:44.668Z,31.00
2018-06-05T09:43:02.945Z,31.30
2018-06-05T09:46:21.212Z,28.30
2018-06-05T09:49:39.489Z,28.00
2018-06-05T09:52:57.769Z,28.90
2018-06-05T09:56:16.070Z,29.00
2018-06-05T09:59:34.316Z,28.60
2018-06-05T10:02:52.585Z,28.20
2018-06-05T10:06:10.854Z,27.90
2018-06-05T10:09:29.147Z,29.20
2018-06-05T10:12:47.420Z,30.40
2018-06-05T10:16:05.754Z,30.30
2018-06-05T10:19:24.885Z,29.50
2018-06-05T10:22:43.175Z,30.90
2018-06-05T10:26:01.480Z,32.00
2018-06-05T10:29:19.790Z,32.50
2018-06-05T10:32:38.045Z,32.90
2018-06-05T10:35:56.336Z,33.50
2018-06-05T10:39:14.604Z,33.40
2018-06-05T10:42:32.909Z,32.70
2018-06-05T10:45:51.171Z,32.60
2018-06-05T10:49:09.476Z,33.20
2018-06-05T10:52:27.772Z,33.60
2018-06-05T10:55:46.045Z,33.00
2018-06-05T10:59:04.344Z,33.30
2018-06-05T11:02:22.620Z,32.80
2018-06-05T11:05:40.907Z,32.20
2018-06-05T11:08:59.180Z,32.50
2018-06-05T11:12:17.437Z,32.90
2018-06-05T11:15:35.712Z,33.10
2018-06-05T11:18:54.005Z,31.10
2018-06-05T11:22:12.305Z,32.60
2018-06-05T11:25:30.575Z,33.60
2018-06-05T11:32:06.861Z,31.20
2018-06-05T11:38:43.133Z,33.00
2018-06-05T11:42:01.433Z,33.90
2018-06-05T11:45:19.724Z,34.80
2018-06-05T11:48:38.028Z,35.10
2018-06-05T11:51:56.306Z,34.90
2018-06-05T11:55:14.596Z,34.70
2018-06-05T11:58:32.873Z,34.60
2018-06-05T12:01:51.175Z,34.20
2018-06-05T12:05:09.461Z,34.80
2018-06-05T12:08:27.727Z,34.60
2018-06-05T12:11:46.043Z,33.40
2018-06-05T12:18:22.339Z,31.80
2018-06-05T12:24:58.641Z,32.30
2018-06-05T12:28:16.928Z,33.70
2018-06-05T12:31:35.203Z,34.70
2018-06-05T12:34:53.488Z,35.40
2018-06-05T12:38:11.755Z,35.40
2018-06-05T12:41:30.045Z,33.80
2018-06-05T12:44:48.340Z,34.30
2018-06-05T12:48:06.620Z,34.70
2018-06-05T12:51:24.890Z,35.50
2018-06-05T12:54:43.192Z,35.20
2018-06-05T12:58:01.540Z,35.10
2018-06-05T13:01:19.788Z,34.30
2018-06-05T13:04:38.073Z,35.70
2018-06-05T13:07:56.341Z,36.90
2018-06-05T13:11:14.624Z,36.80
2018-06-05T13:14:32.927Z,37.40
2018-06-05T13:17:51.223Z,36.50
2018-06-05T13:21:09.508Z,36.40
2018-06-05T13:24:28.547Z,37.00
2018-06-05T13:27:46.839Z,37.70
2018-06-05T13:31:05.189Z,37.70
2018-06-05T13:34:23.465Z,37.60
2018-06-05T13:37:41.731Z,36.20
2018-06-05T13:44:18.041Z,32.70
2018-06-05T13:47:36.308Z,35.10
2018-06-05T13:50:54.620Z,36.60
2018-06-05T13:57:30.904Z,38.60
2018-06-05T14:04:07.208Z,37.90
2018-06-05T14:10:43.509Z,38.10
2018-06-05T14:14:01.798Z,37.60
2018-06-05T14:17:20.561Z,38.30
2018-06-05T14:20:38.847Z,38.40
2018-06-05T14:27:15.121Z,36.90
2018-06-05T14:30:33.412Z,37.30
2018-06-05T14:33:51.693Z,37.70
2018-06-05T14:37:09.964Z,36.70
2018-06-05T14:40:28.259Z,37.40
2018-06-05T14:43:46.540Z,36.30
2018-06-05T14:47:04.865Z,35.90
2018-06-05T14:50:23.152Z,36.70
2018-06-05T14:53:41.453Z,37.10
2018-06-05T14:56:59.724Z,36.00
2018-06-05T15:00:18.022Z,36.00
2018-06-05T15:03:36.283Z,36.20
2018-06-05T15:10:12.597Z,36.10
2018-06-05T15:13:30.885Z,35.70
2018-06-05T15:16:49.186Z,35.20
2018-06-05T15:20:07.456Z,34.90
2018-06-05T15:23:25.764Z,35.20
2018-06-05T15:26:44.384Z,35.60
2018-06-05T15:30:02.723Z,36.30
2018-06-05T15:33:21.092Z,36.80
2018-06-05T15:36:39.440Z,36.60
2018-06-05T15:39:57.836Z,35.70
2018-06-05T15:46:34.648Z,34.20
2018-06-05T15:49:53.000Z,33.20
2018-06-05T15:53:15.540Z,32.10
2018-06-05T15:56:34.304Z,32.90
2018-06-05T15:59:53.483Z,32.60
2018-06-05T16:03:13.552Z,32.40
2018-06-05T16:06:33.888Z,32.20
2018-06-05T16:09:52.172Z,31.80
2018-06-05T16:13:10.453Z,31.50
2018-06-05T16:16:29.312Z,31.40
2018-06-05T16:23:05.688Z,30.90
2018-06-05T16:26:24.082Z,30.80
2018-06-05T16:29:42.417Z,30.80
2018-06-05T16:33:00.685Z,30.60
2018-06-05T16:36:19.017Z,30.50
2018-06-05T16:39:37.283Z,30.40
2018-06-05T16:42:55.564Z,30.40
2018-06-05T16:46:14.031Z,30.20
2018-06-05T16:49:32.324Z,30.10
2018-06-05T16:52:50.737Z,30.00
2018-06-05T16:56:08.992Z,29.90
2018-06-05T16:59:27.279Z,29.70
2018-06-05T17:02:45.699Z,29.40
2018-06-05T17:06:04.310Z,29.00
2018-06-05T17:09:22.585Z,28.70
2018-06-05T17:12:40.873Z,28.70
2018-06-05T17:15:59.163Z,28.60
2018-06-05T17:19:17.477Z,28.60
2018-06-05T17:22:35.763Z,28.60
2018-06-05T17:25:54.028Z,28.60
2018-06-05T17:29:12.313Z,28.50
2018-06-05T17:32:30.599Z,28.40
2018-06-05T17:35:48.870Z,28.30
2018-06-05T17:39:07.769Z,28.20
2018-06-05T17:45:44.032Z,28.10
2018-06-05T17:49:02.303Z,28.00
2018-06-05T17:55:38.593Z,27.60
2018-06-05T18:02:14.904Z,27.40
2018-06-05T18:05:33.175Z,27.20
2018-06-05T18:08:51.464Z,27.00
2018-06-05T18:12:09.745Z,27.00
2018-06-05T18:15:28.102Z,26.80
2018-06-05T18:18:46.389Z,26.60
2018-06-05T18:22:04.689Z,26.50
2018-06-05T18:25:22.976Z,26.30
2018-06-05T18:28:41.282Z,26.20
2018-06-05T18:35:17.629Z,26.00
2018-06-05T18:38:35.980Z,25.90
2018-06-05T18:41:54.209Z,25.70
2018-06-05T18:45:12.533Z,25.60
2018-06-05T18:48:30.817Z,25.40
2018-06-05T18:51:49.095Z,25.40
2018-06-05T18:55:07.666Z,25.40
2018-06-05T18:58:27.217Z,25.30
2018-06-05T19:01:46.156Z,25.20
2018-06-05T19:05:04.485Z,25.00
2018-06-05T19:08:22.912Z,25.00
2018-06-05T19:14:59.411Z,24.80
2018-06-05T19:18:18.355Z,24.70
2018-06-05T19:21:36.628Z,24.70
2018-06-05T19:24:54.997Z,24.60
2018-06-05T19:28:13.700Z,24.50
2018-06-05T19:31:32.168Z,24.40
2018-06-05T19:38:08.770Z,24.20
2018-06-05T19:41:27.091Z,24.20
2018-06-05T19:44:46.020Z,24.10
2018-06-05T19:48:04.575Z,24.10
2018-06-05T19:51:23.420Z,24.00
2018-06-05T19:54:41.820Z,23.90
2018-06-05T19:58:00.948Z,23.90
2018-06-05T20:01:19.476Z,23.70
2018-06-05T20:04:37.852Z,23.70
2018-06-05T20:11:14.151Z,23.50
2018-06-05T20:14:32.452Z,23.40
2018-06-05T20:17:50.734Z,23.40
2018-06-05T20:24:27.037Z,23.40
2018-06-05T20:27:45.300Z,23.30
2018-06-05T20:31:03.592Z,23.30
2018-06-05T20:34:21.905Z,23.30
2018-06-05T20:37:40.187Z,23.20
2018-06-05T20:40:58.492Z,23.20
2018-06-05T20:44:16.764Z,23.20
2018-06-05T20:47:35.020Z,23.20
2018-06-05T20:50:53.308Z,23.10
2018-06-05T20:54:11.601Z,23.20
2018-06-05T20:57:31.829Z,23.20
2018-06-05T21:00:52.552Z,23.10
2018-06-05T21:04:11.580Z,23.00
2018-06-05T21:07:32.813Z,22.90
2018-06-05T21:10:56.450Z,22.80
2018-06-05T21:14:18.776Z,22.70
2018-06-05T21:17:39.683Z,22.60
2018-06-05T21:21:00.305Z,22.70
2018-06-05T21:27:37.130Z,22.50
2018-06-05T21:30:55.936Z,22.30
2018-06-05T21:34:14.204Z,22.30
2018-06-05T21:37:33.043Z,22.20
2018-06-05T21:40:51.336Z,22.10
2018-06-05T21:44:09.659Z,22.20
2018-06-05T21:47:27.937Z,22.30
2018-06-05T21:50:46.235Z,22.30
2018-06-05T21:54:04.495Z,22.40
2018-06-05T21:57:22.772Z,22.40
2018-06-05T22:00:41.064Z,22.40
2018-06-05T22:03:59.340Z,22.50
2018-06-05T22:07:17.611Z,22.50
2018-06-05T22:10:35.899Z,22.40
2018-06-05T22:13:54.141Z,22.10
2018-06-05T22:17:12.428Z,22.10
2018-06-05T22:20:30.676Z,22.10
2018-06-05T22:23:48.953Z,22.20
2018-06-05T22:27:07.242Z,22.20
2018-06-05T22:30:25.521Z,22.10
2018-06-05T22:33:43.811Z,21.90
2018-06-05T22:37:02.074Z,22.00
2018-06-05T22:40:20.352Z,21.90
2018-06-05T22:43:38.621Z,22.00
2018-06-05T22:46:56.908Z,22.00
2018-06-05T22:50:15.176Z,22.00
2018-06-05T22:53:33.696Z,21.80
2018-06-05T22:56:52.008Z,21.80
2018-06-05T23:00:10.364Z,21.80
2018-06-05T23:03:28.647Z,21.70
2018-06-05T23:06:46.936Z,21.60
2018-06-05T23:10:05.250Z,21.50
2018-06-05T23:13:23.519Z,21.50
2018-06-05T23:16:41.812Z,21.20
2018-06-05T23:20:00.076Z,21.10
2018-06-05T23:23:18.345Z,21.00
2018-06-05T23:26:36.637Z,20.90
2018-06-05T23:29:54.893Z,20.90
2018-06-05T23:33:13.165Z,20.70
2018-06-05T23:36:31.436Z,20.70
2018-06-05T23:39:49.702Z,20.70
2018-06-05T23:43:07.981Z,20.80
2018-06-05T23:46:26.257Z,20.60
2018-06-05T23:49:44.544Z,20.40
2018-06-05T23:53:02.846Z,20.60
2018-06-05T23:56:21.103Z,20.50
2018-06-05T23:59:39.401Z,20.60
